createdAt,value
2023-05-16T00:02:09.187Z,10.25
2023-05-16T00:06:15.803Z,9.70
2023-05-16T00:10:18.956Z,10.88
2023-05-16T00:14:22.573Z,12.55
2023-05-16T00:18:28.961Z,8.82
2023-05-16T00:22:31.993Z,9.93
2023-05-16T00:26:35.003Z,9.93
2023-05-16T00:34:42.447Z,8.10
2023-05-16T00:38:47.111Z,12.27
2023-05-16T00:42:50.140Z,9.32
2023-05-16T00:50:57.541Z,10.20
2023-05-16T00:55:00.486Z,11.50
2023-05-16T01:03:09.967Z,11.10
2023-05-16T01:07:14.094Z,11.88
2023-05-16T01:11:26.407Z,13.57
2023-05-16T01:15:32.928Z,11.38
2023-05-16T01:19:58.258Z,12.45
2023-05-16T01:24:11.514Z,11.77
2023-05-16T01:28:18.211Z,14.98
2023-05-16T01:32:22.967Z,13.88
2023-05-16T01:36:32.179Z,13.43
2023-05-16T01:40:43.511Z,12.48
2023-05-16T01:44:56.596Z,13.90
2023-05-16T01:49:07.405Z,13.90
2023-05-16T01:53:16.752Z,14.05
2023-05-16T01:57:20.802Z,9.43
2023-05-16T02:01:25.314Z,14.68
2023-05-16T02:05:28.404Z,14.90
2023-05-16T02:09:32.241Z,14.77
2023-05-16T02:13:35.384Z,13.70
2023-05-16T02:21:42.955Z,13.45
2023-05-16T02:25:46.090Z,14.88
2023-05-16T02:33:56.232Z,12.35
2023-05-16T02:37:59.293Z,14.65
2023-05-16T02:42:02.413Z,15.15
2023-05-16T02:46:06.470Z,13.95
2023-05-16T02:50:11.775Z,16.58
2023-05-16T02:54:14.982Z,14.52
2023-05-16T02:58:19.662Z,14.93
2023-05-16T03:02:22.862Z,20.40
2023-05-16T03:06:27.448Z,15.75
2023-05-16T03:10:30.428Z,16.00
2023-05-16T03:14:33.389Z,16.33
2023-05-16T03:18:36.679Z,18.20
2023-05-16T03:22:41.650Z,8.70
2023-05-16T03:26:44.709Z,16.88
2023-05-16T03:34:50.022Z,13.07
2023-05-16T03:38:54.471Z,14.88
2023-05-16T03:42:57.574Z,14.73
2023-05-16T03:47:02.415Z,14.93
2023-05-16T03:51:05.371Z,16.63
2023-05-16T03:59:13.397Z,14.05
2023-05-16T04:03:16.425Z,15.55
2023-05-16T04:07:23.255Z,13.93
2023-05-16T04:11:28.666Z,15.90
2023-05-16T04:15:34.752Z,13.18
2023-05-16T04:19:40.151Z,9.77
2023-05-16T04:23:43.687Z,10.52
2023-05-16T04:27:48.411Z,7.97
2023-05-16T04:31:51.568Z,7.22
2023-05-16T04:35:55.070Z,7.03
2023-05-16T04:39:58.136Z,7.15
2023-05-16T04:44:04.319Z,8.73
2023-05-16T04:48:08.042Z,7.25
2023-05-16T04:52:11.403Z,6.80
2023-05-16T04:56:14.368Z,7.47
2023-05-16T05:00:22.541Z,6.40
2023-05-16T05:08:28.398Z,7.07
2023-05-16T05:12:31.570Z,7.07
2023-05-16T05:16:37.647Z,10.32
2023-05-16T05:20:43.717Z,6.20
2023-05-16T05:24:46.795Z,6.05
2023-05-16T05:29:01.613Z,6.28
2023-05-16T05:33:10.357Z,8.02
2023-05-16T05:37:13.267Z,10.18
2023-05-16T05:41:16.176Z,8.00
2023-05-16T05:45:19.151Z,7.10
2023-05-16T05:49:23.885Z,8.23
2023-05-16T05:53:26.992Z,7.65
2023-05-16T05:57:30.137Z,8.50
2023-05-16T06:01:33.738Z,5.97
2023-05-16T06:05:38.228Z,7.25
2023-05-16T06:09:41.222Z,8.48
2023-05-16T06:13:44.164Z,6.55
2023-05-16T06:17:47.062Z,11.80
2023-05-16T06:21:51.411Z,8.48
2023-05-16T06:25:54.442Z,6.22
2023-05-16T06:29:57.430Z,7.57
2023-05-16T06:34:00.382Z,7.75
2023-05-16T06:38:06.136Z,7.78
2023-05-16T06:42:09.278Z,7.93
2023-05-16T06:46:13.567Z,7.35
2023-05-16T06:50:16.687Z,8.05
2023-05-16T06:54:20.975Z,8.30
2023-05-16T06:58:24.039Z,7.78
2023-05-16T07:02:27.346Z,9.77
2023-05-16T07:06:30.281Z,5.82
2023-05-16T07:10:34.778Z,8.65
2023-05-16T07:14:37.726Z,9.55
2023-05-16T07:18:40.803Z,8.57
2023-05-16T07:22:43.675Z,8.73
2023-05-16T07:26:48.480Z,7.78
2023-05-16T07:30:55.053Z,11.50
2023-05-16T07:35:01.090Z,8.27
2023-05-16T07:39:05.121Z,7.88
2023-05-16T07:43:09.700Z,7.03
2023-05-16T07:47:12.709Z,6.35
2023-05-16T07:51:15.773Z,6.35
2023-05-16T07:55:18.852Z,5.78
2023-05-16T07:59:23.110Z,4.53
2023-05-16T08:03:26.143Z,2.90
2023-05-16T08:07:31.088Z,2.35
2023-05-16T08:11:34.127Z,3.85
2023-05-16T08:15:40.912Z,2.67
2023-05-16T08:19:43.872Z,3.22
2023-05-16T08:23:46.898Z,3.60
2023-05-16T08:27:51.567Z,3.30
2023-05-16T08:31:56.269Z,2.80
2023-05-16T08:36:01.278Z,4.32
2023-05-16T08:40:08.658Z,3.30
2023-05-16T08:44:13.396Z,3.60
2023-05-16T08:48:19.441Z,3.13
2023-05-16T08:52:27.005Z,3.20
2023-05-16T08:56:29.669Z,3.28
2023-05-16T09:00:33.445Z,3.28
2023-05-16T09:04:40.342Z,3.13
2023-05-16T09:08:46.046Z,3.80
2023-05-16T09:12:52.230Z,3.38
2023-05-16T09:17:06.384Z,4.47
2023-05-16T09:21:11.878Z,3.17
2023-05-16T09:25:29.540Z,3.33
2023-05-16T09:29:37.035Z,2.88
2023-05-16T09:33:44.035Z,3.35
2023-05-16T09:37:49.005Z,4.35
2023-05-16T09:41:54.278Z,2.70
2023-05-16T09:46:01.296Z,3.58
2023-05-16T09:50:04.613Z,3.13
2023-05-16T09:54:10.822Z,2.28
2023-05-16T09:58:13.755Z,4.05
2023-05-16T10:02:18.399Z,2.60
2023-05-16T10:06:25.341Z,3.60
2023-05-16T10:10:30.702Z,2.70
2023-05-16T10:14:37.038Z,2.65
2023-05-16T10:18:44.135Z,2.70
2023-05-16T10:22:48.804Z,2.60
2023-05-16T10:26:53.794Z,2.38
2023-05-16T10:30:57.630Z,2.30
2023-05-16T10:35:03.406Z,2.40
2023-05-16T10:39:06.996Z,2.67
2023-05-16T10:43:11.721Z,3.00
2023-05-16T10:47:14.716Z,3.20
2023-05-16T10:51:38.412Z,2.65
2023-05-16T10:56:01.926Z,3.05
2023-05-16T11:00:23.305Z,2.85
2023-05-16T11:04:51.297Z,3.42
2023-05-16T11:09:06.860Z,4.03
2023-05-16T11:13:19.782Z,3.38
2023-05-16T11:17:27.806Z,3.70
2023-05-16T11:22:04.692Z,2.80
2023-05-16T11:26:07.923Z,4.80
2023-05-16T11:30:14.510Z,3.58
2023-05-16T11:34:20.226Z,3.13
2023-05-16T11:38:23.579Z,2.90
2023-05-16T11:42:26.615Z,2.78
2023-05-16T11:46:29.885Z,2.65
2023-05-16T11:50:36.653Z,3.15
2023-05-16T11:54:39.801Z,2.83
2023-05-16T11:58:43.475Z,3.08
2023-05-16T12:02:47.886Z,2.75
2023-05-16T12:07:02.636Z,2.53
2023-05-16T12:11:05.979Z,3.58
2023-05-16T12:15:10.981Z,2.83
2023-05-16T12:19:14.492Z,2.65
2023-05-16T12:23:18.975Z,2.80
2023-05-16T12:27:23.915Z,2.53
2023-05-16T12:31:31.524Z,3.15
2023-05-16T12:35:36.491Z,3.10
2023-05-16T12:39:41.065Z,3.13
2023-05-16T12:43:44.039Z,4.70
2023-05-16T12:47:47.514Z,3.30
2023-05-16T12:51:52.499Z,3.35
2023-05-16T12:55:56.927Z,3.28
2023-05-16T12:59:59.936Z,3.67
2023-05-16T13:04:03.286Z,3.35
2023-05-16T13:08:07.621Z,4.03
2023-05-16T13:12:12.282Z,3.40
2023-05-16T13:16:15.230Z,3.50
2023-05-16T13:20:18.126Z,3.78
2023-05-16T13:24:21.168Z,3.45
2023-05-16T13:28:26.174Z,3.40
2023-05-16T13:32:29.480Z,3.20
2023-05-16T13:36:41.770Z,3.05
2023-05-16T13:40:55.870Z,3.22
2023-05-16T13:45:00.431Z,3.20
2023-05-16T13:49:03.207Z,3.42
2023-05-16T13:53:09.083Z,3.42
2023-05-16T13:57:12.260Z,3.42
2023-05-16T14:01:16.817Z,6.88
2023-05-16T14:05:20.144Z,3.20
2023-05-16T14:09:23.292Z,3.22
2023-05-16T14:13:26.325Z,3.00
2023-05-16T14:17:31.066Z,2.97
2023-05-16T14:21:34.661Z,5.75
2023-05-16T14:25:37.967Z,3.30
2023-05-16T14:29:40.852Z,2.72
2023-05-16T14:33:45.251Z,3.17
2023-05-16T14:37:52.262Z,3.40
2023-05-16T14:41:55.669Z,5.75
2023-05-16T14:45:58.824Z,3.03
2023-05-16T14:50:05.782Z,2.60
2023-05-16T14:54:09.156Z,4.13
2023-05-16T14:58:14.696Z,2.70
2023-05-16T15:02:17.927Z,4.72
2023-05-16T15:06:22.704Z,3.13
2023-05-16T15:10:26.679Z,4.28
2023-05-16T15:14:30.084Z,2.97
2023-05-16T15:18:37.264Z,3.63
2023-05-16T15:22:41.792Z,4.25
2023-05-16T15:26:46.122Z,3.53
2023-05-16T15:30:49.058Z,3.30
2023-05-16T15:34:51.271Z,3.30
2023-05-16T15:38:56.016Z,3.80
2023-05-16T15:42:58.988Z,3.28
2023-05-16T15:47:01.970Z,3.53
2023-05-16T15:51:05.066Z,3.45
2023-05-16T15:55:12.100Z,3.30
2023-05-16T15:59:15.501Z,3.20
2023-05-16T16:03:19.186Z,2.92
2023-05-16T16:07:22.489Z,2.88
2023-05-16T16:11:28.371Z,3.40
2023-05-16T16:15:33.327Z,3.70
2023-05-16T16:24:52.036Z,4.97
2023-05-16T16:28:56.265Z,3.75
2023-05-16T16:32:59.448Z,3.30
2023-05-16T16:37:02.775Z,3.25
2023-05-16T16:41:05.738Z,4.85
2023-05-16T16:45:11.453Z,3.50
2023-05-16T16:49:14.866Z,3.63
2023-05-16T16:53:17.668Z,3.65
2023-05-16T16:57:20.585Z,3.42
2023-05-16T17:01:26.481Z,4.28
2023-05-16T17:05:30.656Z,4.72
2023-05-16T17:09:33.667Z,4.22
2023-05-16T17:13:37.914Z,4.15
2023-05-16T17:17:42.784Z,4.75
2023-05-16T17:21:45.801Z,4.63
2023-05-16T17:25:48.794Z,4.68
2023-05-16T17:29:52.335Z,7.15
2023-05-16T17:33:57.205Z,4.10
2023-05-16T17:38:00.427Z,4.88
2023-05-16T17:42:03.235Z,4.15
2023-05-16T17:46:06.681Z,5.60
2023-05-16T17:50:12.357Z,4.18
2023-05-16T17:54:16.216Z,4.68
2023-05-16T17:58:19.683Z,7.07
2023-05-16T18:02:24.620Z,5.35
2023-05-16T18:06:30.414Z,4.93
2023-05-16T18:10:40.189Z,5.13
2023-05-16T18:14:54.232Z,5.20
2023-05-16T18:18:57.922Z,5.57
2023-05-16T18:23:02.838Z,6.13
2023-05-16T18:27:06.388Z,5.57
2023-05-16T18:31:09.090Z,5.32
2023-05-16T18:35:13.392Z,6.07
2023-05-16T18:39:21.297Z,6.47
2023-05-16T18:43:24.098Z,7.20
2023-05-16T18:47:27.015Z,6.10
2023-05-16T18:51:30.012Z,5.68
2023-05-16T18:55:34.301Z,6.47
2023-05-16T18:59:37.240Z,6.80
2023-05-16T19:03:40.324Z,6.85
2023-05-16T19:07:43.719Z,7.05
2023-05-16T19:11:48.004Z,6.78
2023-05-16T19:15:50.751Z,7.10
2023-05-16T19:19:53.931Z,6.60
2023-05-16T19:23:57.093Z,7.72
2023-05-16T19:28:01.401Z,8.60
2023-05-16T19:32:04.546Z,8.35
2023-05-16T19:36:08.099Z,8.95
2023-05-16T19:40:11.485Z,9.30
2023-05-16T19:44:15.896Z,11.23
2023-05-16T19:48:19.174Z,10.00
2023-05-16T19:52:22.518Z,12.05
2023-05-16T19:56:27.370Z,10.90
2023-05-16T20:00:32.035Z,13.02
2023-05-16T20:04:35.042Z,18.40
2023-05-16T20:08:38.011Z,10.63
2023-05-16T20:12:41.109Z,13.55
2023-05-16T20:16:45.410Z,12.32
2023-05-16T20:20:48.242Z,13.10
2023-05-16T20:24:51.178Z,11.70
2023-05-16T20:28:53.940Z,13.18
2023-05-16T20:37:01.288Z,13.00
2023-05-16T20:41:04.850Z,11.60
2023-05-16T20:45:08.759Z,10.25
2023-05-16T20:49:13.608Z,10.10
2023-05-16T20:53:16.791Z,12.52
2023-05-16T20:57:19.933Z,10.65
2023-05-16T21:01:22.877Z,11.15
2023-05-16T21:05:27.384Z,11.02
2023-05-16T21:09:30.438Z,11.05
2023-05-16T21:13:33.668Z,9.85
2023-05-16T21:17:37.116Z,11.07
2023-05-16T21:21:42.212Z,10.18
2023-05-16T21:25:45.532Z,11.30
2023-05-16T21:29:48.670Z,11.52
2023-05-16T21:33:52.651Z,9.70
2023-05-16T21:37:57.610Z,10.65
2023-05-16T21:42:01.528Z,10.20
2023-05-16T21:46:04.579Z,9.65
2023-05-16T21:54:13.781Z,9.18
2023-05-16T21:58:19.420Z,10.70
2023-05-16T22:02:23.488Z,11.65
2023-05-16T22:06:26.894Z,12.10
2023-05-16T22:10:31.438Z,11.40
2023-05-16T22:14:34.662Z,11.70
2023-05-16T22:18:38.062Z,10.77
2023-05-16T22:22:41.702Z,10.07
2023-05-16T22:26:46.249Z,11.13
2023-05-16T22:30:49.406Z,10.80
2023-05-16T22:34:52.855Z,10.90
2023-05-16T22:38:56.186Z,12.38
2023-05-16T22:43:00.733Z,10.30
2023-05-16T22:47:03.705Z,10.95
2023-05-16T22:51:06.918Z,11.25
2023-05-16T22:55:10.536Z,10.52
2023-05-16T22:59:15.158Z,10.77
2023-05-16T23:03:18.180Z,10.93
2023-05-16T23:07:21.169Z,11.05
2023-05-16T23:11:24.256Z,11.90
2023-05-16T23:15:28.922Z,11.75
2023-05-16T23:19:32.532Z,10.27
2023-05-16T23:23:35.527Z,14.38
2023-05-16T23:27:38.392Z,10.93
2023-05-16T23:31:42.675Z,12.45
2023-05-16T23:35:45.738Z,13.48
2023-05-16T23:39:49.284Z,16.13
2023-05-16T23:47:56.381Z,14.77
2023-05-16T23:51:59.382Z,18.17
2023-05-16T23:56:02.345Z,15.02
